sensor_id;sensor_type;location;lat;lon;timestamp;pressure;altitude;pressure_sealevel;temperature;humidity
25947;BME280;13745;51.470;9.894;2023-07-09T00:01:41;99684.00;;;20.09;74.23
25947;BME280;13745;51.470;9.894;2023-07-09T00:04:26;99690.44;;;20.03;74.76
25947;BME280;13745;51.470;9.894;2023-07-09T00:07:19;99688.06;;;19.97;75.33
25947;BME280;13745;51.470;9.894;2023-07-09T00:10:15;99679.69;;;19.89;75.42
25947;BME280;13745;51.470;9.894;2023-07-09T00:13:00;99684.22;;;19.85;75.40
25947;BME280;13745;51.470;9.894;2023-07-09T00:15:45;99686.31;;;19.79;75.59
25947;BME280;13745;51.470;9.894;2023-07-09T00:18:30;99687.34;;;19.75;75.62
25947;BME280;13745;51.470;9.894;2023-07-09T00:21:16;99688.44;;;19.71;75.71
25947;BME280;13745;51.470;9.894;2023-07-09T00:24:02;99680.81;;;19.64;75.94
25947;BME280;13745;51.470;9.894;2023-07-09T00:26:50;99683.59;;;19.61;76.02
25947;BME280;13745;51.470;9.894;2023-07-09T00:29:36;99690.84;;;19.56;75.92
25947;BME280;13745;51.470;9.894;2023-07-09T00:32:20;99686.59;;;19.52;76.14
25947;BME280;13745;51.470;9.894;2023-07-09T00:35:07;99689.50;;;19.46;76.12
25947;BME280;13745;51.470;9.894;2023-07-09T00:37:52;99683.59;;;19.41;76.27
25947;BME280;13745;51.470;9.894;2023-07-09T00:40:37;99695.88;;;19.41;76.59
25947;BME280;13745;51.470;9.894;2023-07-09T00:43:25;99694.34;;;19.36;76.45
25947;BME280;13745;51.470;9.894;2023-07-09T00:47:09;99691.81;;;19.33;76.43
25947;BME280;13745;51.470;9.894;2023-07-09T00:49:28;99688.56;;;19.28;76.67
25947;BME280;13745;51.470;9.894;2023-07-09T00:52:22;99684.25;;;19.26;76.85
25947;BME280;13745;51.470;9.894;2023-07-09T00:55:11;99683.47;;;19.24;76.73
25947;BME280;13745;51.470;9.894;2023-07-09T00:58:03;99690.59;;;19.22;76.88
25947;BME280;13745;51.470;9.894;2023-07-09T01:00:54;99689.84;;;19.18;77.09
25947;BME280;13745;51.470;9.894;2023-07-09T01:03:44;99680.41;;;19.14;77.23
25947;BME280;13745;51.470;9.894;2023-07-09T01:06:32;99685.75;;;19.13;77.28
25947;BME280;13745;51.470;9.894;2023-07-09T01:09:19;99686.66;;;19.12;77.69
25947;BME280;13745;51.470;9.894;2023-07-09T01:12:07;99681.53;;;19.08;77.92
25947;BME280;13745;51.470;9.894;2023-07-09T01:14:55;99676.41;;;19.05;77.62
25947;BME280;13745;51.470;9.894;2023-07-09T01:17:45;99678.25;;;19.03;77.77
25947;BME280;13745;51.470;9.894;2023-07-09T01:20:31;99680.16;;;19.00;77.69
25947;BME280;13745;51.470;9.894;2023-07-09T01:23:18;99677.72;;;18.95;78.10
25947;BME280;13745;51.470;9.894;2023-07-09T01:26:03;99679.63;;;18.92;78.11
25947;BME280;13745;51.470;9.894;2023-07-09T01:28:48;99682.38;;;18.89;78.28
25947;BME280;13745;51.470;9.894;2023-07-09T01:31:35;99682.47;;;18.87;78.12
25947;BME280;13745;51.470;9.894;2023-07-09T01:34:21;99691.38;;;18.83;78.19
25947;BME280;13745;51.470;9.894;2023-07-09T01:37:06;99698.53;;;18.79;78.19
25947;BME280;13745;51.470;9.894;2023-07-09T01:39:54;99690.78;;;18.76;78.40
25947;BME280;13745;51.470;9.894;2023-07-09T01:42:39;99695.38;;;18.71;78.41
25947;BME280;13745;51.470;9.894;2023-07-09T01:45:25;99693.88;;;18.64;78.56
25947;BME280;13745;51.470;9.894;2023-07-09T01:48:10;99688.75;;;18.61;78.54
25947;BME280;13745;51.470;9.894;2023-07-09T01:51:00;99697.75;;;18.56;78.70
25947;BME280;13745;51.470;9.894;2023-07-09T01:53:46;99693.53;;;18.51;78.66
25947;BME280;13745;51.470;9.894;2023-07-09T01:56:33;99693.66;;;18.48;78.68
25947;BME280;13745;51.470;9.894;2023-07-09T01:59:18;99689.41;;;18.46;78.78
25947;BME280;13745;51.470;9.894;2023-07-09T02:02:06;99683.31;;;18.44;78.80
25947;BME280;13745;51.470;9.894;2023-07-09T02:04:53;99683.41;;;18.42;78.94
25947;BME280;13745;51.470;9.894;2023-07-09T02:07:39;99688.84;;;18.38;79.01
25947;BME280;13745;51.470;9.894;2023-07-09T02:10:24;99693.41;;;18.33;79.12
25947;BME280;13745;51.470;9.894;2023-07-09T02:13:12;99682.13;;;18.31;79.23
25947;BME280;13745;51.470;9.894;2023-07-09T02:15:57;99682.22;;;18.28;79.39
25947;BME280;13745;51.470;9.894;2023-07-09T02:18:42;99686.69;;;18.25;79.53
25947;BME280;13745;51.470;9.894;2023-07-09T02:21:27;99687.69;;;18.23;79.48
25947;BME280;13745;51.470;9.894;2023-07-09T02:24:13;99682.53;;;18.20;79.48
25947;BME280;13745;51.470;9.894;2023-07-09T02:27:00;99683.47;;;18.19;79.83
25947;BME280;13745;51.470;9.894;2023-07-09T02:29:47;99673.88;;;18.18;79.72
25947;BME280;13745;51.470;9.894;2023-07-09T02:32:33;99676.56;;;18.16;79.91
25947;BME280;13745;51.470;9.894;2023-07-09T02:35:18;99680.13;;;18.15;79.77
25947;BME280;13745;51.470;9.894;2023-07-09T02:38:03;99674.13;;;18.12;80.02
25947;BME280;13745;51.470;9.894;2023-07-09T02:40:48;99677.72;;;18.09;80.19
25947;BME280;13745;51.470;9.894;2023-07-09T02:43:34;99678.78;;;18.05;80.17
25947;BME280;13745;51.470;9.894;2023-07-09T02:46:21;99682.41;;;18.01;80.30
25947;BME280;13745;51.470;9.894;2023-07-09T02:49:09;99673.88;;;17.96;80.37
25947;BME280;13745;51.470;9.894;2023-07-09T02:51:55;99681.84;;;17.93;80.27
25947;BME280;13745;51.470;9.894;2023-07-09T02:54:40;99681.13;;;17.89;80.47
25947;BME280;13745;51.470;9.894;2023-07-09T02:57:25;99673.38;;;17.86;80.55
25947;BME280;13745;51.470;9.894;2023-07-09T03:00:11;99682.22;;;17.84;80.58
25947;BME280;13745;51.470;9.894;2023-07-09T03:02:58;99683.25;;;17.80;80.51
25947;BME280;13745;51.470;9.894;2023-07-09T03:05:44;99679.94;;;17.75;80.78
25947;BME280;13745;51.470;9.894;2023-07-09T03:08:29;99670.50;;;17.69;80.60
25947;BME280;13745;51.470;9.894;2023-07-09T03:11:15;99674.09;;;17.66;80.86
25947;BME280;13745;51.470;9.894;2023-07-09T03:14:01;99684.72;;;17.63;80.95
25947;BME280;13745;51.470;9.894;2023-07-09T03:16:47;99684.81;;;17.60;80.97
25947;BME280;13745;51.470;9.894;2023-07-09T03:19:33;99687.44;;;17.60;81.19
25947;BME280;13745;51.470;9.894;2023-07-09T03:22:18;99685.72;;;17.59;81.21
25947;BME280;13745;51.470;9.894;2023-07-09T03:25:04;99684.88;;;17.59;81.22
25947;BME280;13745;51.470;9.894;2023-07-09T03:27:49;99703.22;;;17.59;81.22
25947;BME280;13745;51.470;9.894;2023-07-09T03:30:34;99699.69;;;17.60;81.31
25947;BME280;13745;51.470;9.894;2023-07-09T03:33:19;99689.19;;;17.60;81.46
25947;BME280;13745;51.470;9.894;2023-07-09T03:36:06;99699.69;;;17.60;81.51
25947;BME280;13745;51.470;9.894;2023-07-09T03:38:52;99707.47;;;17.63;81.53
25947;BME280;13745;51.470;9.894;2023-07-09T03:41:37;99711.78;;;17.64;81.34
25947;BME280;13745;51.470;9.894;2023-07-09T03:44:22;99709.16;;;17.64;81.65
25947;BME280;13745;51.470;9.894;2023-07-09T03:47:07;99709.94;;;17.66;81.75
25947;BME280;13745;51.470;9.894;2023-07-09T03:49:52;99718.66;;;17.66;81.98
25947;BME280;13745;51.470;9.894;2023-07-09T03:52:38;99708.19;;;17.66;82.18
25947;BME280;13745;51.470;9.894;2023-07-09T03:55:24;99708.19;;;17.66;82.21
25947;BME280;13745;51.470;9.894;2023-07-09T03:58:10;99710.88;;;17.65;82.01
25947;BME280;13745;51.470;9.894;2023-07-09T04:00:55;99716.06;;;17.66;82.30
25947;BME280;13745;51.470;9.894;2023-07-09T04:03:40;99716.13;;;17.65;82.19
25947;BME280;13745;51.470;9.894;2023-07-09T04:06:25;99712.63;;;17.64;82.35
25947;BME280;13745;51.470;9.894;2023-07-09T04:09:12;99716.06;;;17.66;82.33
25947;BME280;13745;51.470;9.894;2023-07-09T04:11:57;99723.00;;;17.67;82.21
25947;BME280;13745;51.470;9.894;2023-07-09T04:14:45;99717.69;;;17.69;82.52
25947;BME280;13745;51.470;9.894;2023-07-09T04:17:30;99719.41;;;17.72;82.80
25947;BME280;13745;51.470;9.894;2023-07-09T04:20:15;99729.78;;;17.75;82.92
25947;BME280;13745;51.470;9.894;2023-07-09T04:23:00;99724.47;;;17.76;83.05
25947;BME280;13745;51.470;9.894;2023-07-09T04:25:47;99720.84;;;17.79;83.25
25947;BME280;13745;51.470;9.894;2023-07-09T04:28:32;99728.56;;;17.83;83.30
25947;BME280;13745;51.470;9.894;2023-07-09T04:31:17;99726.75;;;17.85;83.27
25947;BME280;13745;51.470;9.894;2023-07-09T04:34:03;99717.94;;;17.86;83.30
25947;BME280;13745;51.470;9.894;2023-07-09T04:36:48;99734.44;;;17.90;83.61
25947;BME280;13745;51.470;9.894;2023-07-09T04:39:34;99729.19;;;17.90;83.64
25947;BME280;13745;51.470;9.894;2023-07-09T04:42:20;99722.97;;;17.92;83.57
25947;BME280;13745;51.470;9.894;2023-07-09T04:45:07;99720.28;;;17.94;83.60
25947;BME280;13745;51.470;9.894;2023-07-09T04:47:53;99716.72;;;17.96;83.65
25947;BME280;13745;51.470;9.894;2023-07-09T04:50:38;99726.09;;;18.02;83.60
25947;BME280;13745;51.470;9.894;2023-07-09T04:53:24;99732.94;;;18.06;83.58
25947;BME280;13745;51.470;9.894;2023-07-09T04:56:09;99737.16;;;18.10;83.51
25947;BME280;13745;51.470;9.894;2023-07-09T04:58:57;99737.00;;;18.15;83.90
25947;BME280;13745;51.470;9.894;2023-07-09T05:01:42;99735.03;;;18.20;83.93
25947;BME280;13745;51.470;9.894;2023-07-09T05:04:27;99735.66;;;18.27;83.65
25947;BME280;13745;51.470;9.894;2023-07-09T05:07:13;99736.34;;;18.32;83.59
25947;BME280;13745;51.470;9.894;2023-07-09T05:09:58;99732.63;;;18.37;83.79
25947;BME280;13745;51.470;9.894;2023-07-09T05:12:48;99729.72;;;18.43;83.74
25947;BME280;13745;51.470;9.894;2023-07-09T05:15:35;99729.56;;;18.48;83.64
25947;BME280;13745;51.470;9.894;2023-07-09T05:18:20;99734.56;;;18.54;83.69
25947;BME280;13745;51.470;9.894;2023-07-09T05:21:06;99734.31;;;18.60;83.44
25947;BME280;13745;51.470;9.894;2023-07-09T05:23:51;99734.03;;;18.68;83.42
25947;BME280;13745;51.470;9.894;2023-07-09T05:26:36;99738.06;;;18.76;83.21
25947;BME280;13745;51.470;9.894;2023-07-09T05:29:21;99743.84;;;18.85;83.34
25947;BME280;13745;51.470;9.894;2023-07-09T05:32:08;99730.38;;;18.92;83.25
25947;BME280;13745;51.470;9.894;2023-07-09T05:34:53;99736.25;;;18.99;83.16
25947;BME280;13745;51.470;9.894;2023-07-09T05:37:39;99732.38;;;19.07;82.87
25947;BME280;13745;51.470;9.894;2023-07-09T05:40:24;99738.00;;;19.19;82.87
25947;BME280;13745;51.470;9.894;2023-07-09T05:43:09;99731.59;;;19.26;82.62
25947;BME280;13745;51.470;9.894;2023-07-09T05:45:55;99732.97;;;19.34;82.49
25947;BME280;13745;51.470;9.894;2023-07-09T05:48:42;99732.56;;;19.44;82.51
25947;BME280;13745;51.470;9.894;2023-07-09T05:51:27;99739.13;;;19.54;82.03
25947;BME280;13745;51.470;9.894;2023-07-09T05:54:12;99740.38;;;19.66;82.09
25947;BME280;13745;51.470;9.894;2023-07-09T05:56:59;99739.84;;;19.78;81.61
25947;BME280;13745;51.470;9.894;2023-07-09T05:59:44;99734.16;;;19.87;81.33
25947;BME280;13745;51.470;9.894;2023-07-09T06:02:29;99737.06;;;20.00;81.24
25947;BME280;13745;51.470;9.894;2023-07-09T06:05:16;99742.72;;;20.11;80.58
25947;BME280;13745;51.470;9.894;2023-07-09T06:08:03;99737.88;;;20.20;80.37
25947;BME280;13745;51.470;9.894;2023-07-09T06:10:53;99740.75;;;20.33;80.67
25947;BME280;13745;51.470;9.894;2023-07-09T06:13:38;99742.00;;;20.45;80.21
25947;BME280;13745;51.470;9.894;2023-07-09T06:16:24;99736.91;;;20.59;80.26
25947;BME280;13745;51.470;9.894;2023-07-09T06:19:09;99741.59;;;20.71;80.06
25947;BME280;13745;51.470;9.894;2023-07-09T06:21:56;99729.47;;;20.85;80.22
25947;BME280;13745;51.470;9.894;2023-07-09T06:24:41;99735.88;;;20.98;80.21
25947;BME280;13745;51.470;9.894;2023-07-09T06:27:26;99743.16;;;21.10;80.54
25947;BME280;13745;51.470;9.894;2023-07-09T06:30:12;99739.81;;;21.24;80.26
25947;BME280;13745;51.470;9.894;2023-07-09T06:32:57;99743.47;;;21.39;80.65
25947;BME280;13745;51.470;9.894;2023-07-09T06:35:46;99735.75;;;21.51;80.43
25947;BME280;13745;51.470;9.894;2023-07-09T06:38:33;99746.34;;;21.67;80.41
25947;BME280;13745;51.470;9.894;2023-07-09T06:41:18;99746.56;;;21.80;80.51
25947;BME280;13745;51.470;9.894;2023-07-09T06:44:03;99746.59;;;21.96;80.14
25947;BME280;13745;51.470;9.894;2023-07-09T06:46:48;99747.66;;;22.09;79.78
25947;BME280;13745;51.470;9.894;2023-07-09T06:49:33;99747.66;;;22.25;80.04
25947;BME280;13745;51.470;9.894;2023-07-09T06:52:18;99745.97;;;22.39;79.05
25947;BME280;13745;51.470;9.894;2023-07-09T06:55:05;99737.28;;;22.53;79.17
25947;BME280;13745;51.470;9.894;2023-07-09T06:57:51;99742.53;;;22.69;79.06
25947;BME280;13745;51.470;9.894;2023-07-09T07:00:36;99741.59;;;22.86;78.44
25947;BME280;13745;51.470;9.894;2023-07-09T07:03:22;99744.19;;;23.02;78.47
25947;BME280;13745;51.470;9.894;2023-07-09T07:06:08;99740.63;;;23.17;77.72
25947;BME280;13745;51.470;9.894;2023-07-09T07:08:53;99742.44;;;23.31;77.91
25947;BME280;13745;51.470;9.894;2023-07-09T07:11:39;99734.63;;;23.43;76.73
25947;BME280;13745;51.470;9.894;2023-07-09T07:14:24;99736.53;;;23.55;76.23
25947;BME280;13745;51.470;9.894;2023-07-09T07:17:09;99742.81;;;23.69;75.78
25947;BME280;13745;51.470;9.894;2023-07-09T07:19:54;99735.63;;;23.85;76.16
25947;BME280;13745;51.470;9.894;2023-07-09T07:22:39;99742.41;;;24.03;76.08
25947;BME280;13745;51.470;9.894;2023-07-09T07:25:25;99743.03;;;24.21;74.83
25947;BME280;13745;51.470;9.894;2023-07-09T07:28:12;99735.84;;;24.37;73.22
25947;BME280;13745;51.470;9.894;2023-07-09T07:30:58;99741.00;;;24.53;72.35
25947;BME280;13745;51.470;9.894;2023-07-09T07:33:44;99740.97;;;24.68;71.64
25947;BME280;13745;51.470;9.894;2023-07-09T07:36:29;99735.38;;;24.85;71.56
25947;BME280;13745;51.470;9.894;2023-07-09T07:39:14;99732.44;;;25.02;71.08
25947;BME280;13745;51.470;9.894;2023-07-09T07:41:59;99731.34;;;25.19;70.96
25947;BME280;13745;51.470;9.894;2023-07-09T07:44:45;99734.66;;;25.35;70.72
25947;BME280;13745;51.470;9.894;2023-07-09T07:47:30;99741.56;;;25.51;71.01
25947;BME280;13745;51.470;9.894;2023-07-09T07:50:16;99736.03;;;25.66;71.00
25947;BME280;13745;51.470;9.894;2023-07-09T07:53:02;99732.66;;;25.77;71.10
25947;BME280;13745;51.470;9.894;2023-07-09T07:55:47;99743.34;;;25.88;70.92
25947;BME280;13745;51.470;9.894;2023-07-09T07:58:32;99726.75;;;25.97;70.39
25947;BME280;13745;51.470;9.894;2023-07-09T08:01:18;99733.03;;;26.09;70.05
25947;BME280;13745;51.470;9.894;2023-07-09T08:04:05;99734.88;;;26.20;70.01
25947;BME280;13745;51.470;9.894;2023-07-09T08:06:50;99725.19;;;26.31;70.29
25947;BME280;13745;51.470;9.894;2023-07-09T08:09:36;99719.84;;;26.44;69.49
25947;BME280;13745;51.470;9.894;2023-07-09T08:12:22;99726.06;;;26.56;67.76
25947;BME280;13745;51.470;9.894;2023-07-09T08:15:08;99723.59;;;26.66;66.69
25947;BME280;13745;51.470;9.894;2023-07-09T08:17:55;99722.78;;;26.76;66.03
25947;BME280;13745;51.470;9.894;2023-07-09T08:20:43;99721.13;;;26.86;65.36
25947;BME280;13745;51.470;9.894;2023-07-09T08:23:28;99717.88;;;26.94;64.52
25947;BME280;13745;51.470;9.894;2023-07-09T08:26:13;99714.34;;;27.06;64.63
25947;BME280;13745;51.470;9.894;2023-07-09T08:28:58;99715.91;;;27.20;64.43
25947;BME280;13745;51.470;9.894;2023-07-09T08:31:43;99708.69;;;27.33;63.59
25947;BME280;13745;51.470;9.894;2023-07-09T08:34:29;99703.16;;;27.48;62.86
25947;BME280;13745;51.470;9.894;2023-07-09T08:37:14;99702.31;;;27.58;62.45
25947;BME280;13745;51.470;9.894;2023-07-09T08:39:59;99710.19;;;27.71;61.77
25947;BME280;13745;51.470;9.894;2023-07-09T08:42:46;99699.28;;;27.85;61.51
25947;BME280;13745;51.470;9.894;2023-07-09T08:45:41;99706.19;;;27.99;61.69
25947;BME280;13745;51.470;9.894;2023-07-09T08:48:32;99699.63;;;28.14;62.14
25947;BME280;13745;51.470;9.894;2023-07-09T08:51:24;99702.97;;;28.27;61.23
25947;BME280;13745;51.470;9.894;2023-07-09T08:54:15;99702.13;;;28.38;61.35
25947;BME280;13745;51.470;9.894;2023-07-09T08:57:14;99704.78;;;28.49;60.54
25947;BME280;13745;51.470;9.894;2023-07-09T09:00:06;99711.16;;;28.58;60.69
25947;BME280;13745;51.470;9.894;2023-07-09T09:02:58;99702.13;;;28.70;60.25
25947;BME280;13745;51.470;9.894;2023-07-09T09:05:46;99703.66;;;28.84;60.22
25947;BME280;13745;51.470;9.894;2023-07-09T09:08:39;99708.84;;;28.97;60.30
25947;BME280;13745;51.470;9.894;2023-07-09T09:11:31;99702.44;;;29.09;59.69
25947;BME280;13745;51.470;9.894;2023-07-09T09:14:27;99696.09;;;29.21;58.84
25947;BME280;13745;51.470;9.894;2023-07-09T09:17:14;99703.88;;;29.34;58.99
25947;BME280;13745;51.470;9.894;2023-07-09T09:20:02;99692.25;;;29.45;57.93
25947;BME280;13745;51.470;9.894;2023-07-09T09:22:50;99699.81;;;29.60;58.20
25947;BME280;13745;51.470;9.894;2023-07-09T09:25:40;99695.09;;;29.74;57.63
25947;BME280;13745;51.470;9.894;2023-07-09T09:28:27;99699.09;;;29.89;57.48
25947;BME280;13745;51.470;9.894;2023-07-09T09:31:14;99696.84;;;30.04;57.66
25947;BME280;13745;51.470;9.894;2023-07-09T09:34:00;99703.84;;;30.16;56.97
25947;BME280;13745;51.470;9.894;2023-07-09T09:36:45;99705.41;;;30.28;56.79
25947;BME280;13745;51.470;9.894;2023-07-09T09:39:30;99703.16;;;30.43;57.80
25947;BME280;13745;51.470;9.894;2023-07-09T09:42:16;99700.63;;;30.61;57.34
25947;BME280;13745;51.470;9.894;2023-07-09T09:45:02;99702.53;;;30.80;56.70
25947;BME280;13745;51.470;9.894;2023-07-09T09:47:48;99703.91;;;30.93;55.73
25947;BME280;13745;51.470;9.894;2023-07-09T09:50:33;99704.59;;;31.05;55.94
25947;BME280;13745;51.470;9.894;2023-07-09T09:53:22;99704.28;;;31.18;56.35
25947;BME280;13745;51.470;9.894;2023-07-09T09:56:14;99699.66;;;31.29;55.80
25947;BME280;13745;51.470;9.894;2023-07-09T09:59:01;99694.66;;;31.44;55.74
25947;BME280;13745;51.470;9.894;2023-07-09T10:01:56;99699.84;;;31.55;55.52
25947;BME280;13745;51.470;9.894;2023-07-09T10:04:42;99693.59;;;31.65;55.91
25947;BME280;13745;51.470;9.894;2023-07-09T10:07:32;99703.44;;;31.74;54.71
25947;BME280;13745;51.470;9.894;2023-07-09T10:10:23;99697.78;;;31.86;54.49
25947;BME280;13745;51.470;9.894;2023-07-09T10:13:17;99696.72;;;31.97;54.80
25947;BME280;13745;51.470;9.894;2023-07-09T10:16:10;99691.00;;;32.10;54.53
25947;BME280;13745;51.470;9.894;2023-07-09T10:19:05;99695.16;;;32.22;53.94
25947;BME280;13745;51.470;9.894;2023-07-09T10:21:58;99693.84;;;32.36;53.91
25947;BME280;13745;51.470;9.894;2023-07-09T10:24:54;99694.28;;;32.49;54.40
25947;BME280;13745;51.470;9.894;2023-07-09T10:27:52;99692.69;;;32.56;53.77
25947;BME280;13745;51.470;9.894;2023-07-09T10:30:47;99688.75;;;32.68;53.51
25947;BME280;13745;51.470;9.894;2023-07-09T10:33:46;99691.22;;;32.80;53.77
25947;BME280;13745;51.470;9.894;2023-07-09T10:36:44;99686.31;;;32.93;54.43
25947;BME280;13745;51.470;9.894;2023-07-09T10:39:36;99678.00;;;33.04;54.42
25947;BME280;13745;51.470;9.894;2023-07-09T10:42:24;99681.44;;;33.14;54.64
25947;BME280;13745;51.470;9.894;2023-07-09T10:45:14;99678.47;;;33.25;54.32
25947;BME280;13745;51.470;9.894;2023-07-09T10:48:03;99673.31;;;33.32;53.56
25947;BME280;13745;51.470;9.894;2023-07-09T10:50:52;99672.38;;;33.41;53.93
25947;BME280;13745;51.470;9.894;2023-07-09T10:53:41;99680.81;;;33.46;54.12
25947;BME280;13745;51.470;9.894;2023-07-09T10:56:31;99676.50;;;33.53;54.05
25947;BME280;13745;51.470;9.894;2023-07-09T10:59:22;99677.53;;;33.61;53.88
25947;BME280;13745;51.470;9.894;2023-07-09T11:02:18;99675.72;;;33.69;53.64
25947;BME280;13745;51.470;9.894;2023-07-09T11:05:06;99677.75;;;33.75;53.16
25947;BME280;13745;51.470;9.894;2023-07-09T11:07:59;99678.75;;;33.74;52.21
25947;BME280;13745;51.470;9.894;2023-07-09T11:10:50;99669.38;;;33.78;52.64
25947;BME280;13745;51.470;9.894;2023-07-09T11:13:40;99669.09;;;33.90;52.25
25947;BME280;13745;51.470;9.894;2023-07-09T11:16:29;99670.94;;;33.89;52.42
25947;BME280;13745;51.470;9.894;2023-07-09T11:19:18;99671.31;;;33.94;52.48
25947;BME280;13745;51.470;9.894;2023-07-09T11:22:13;99666.97;;;34.01;52.82
25947;BME280;13745;51.470;9.894;2023-07-09T11:25:09;99661.91;;;34.06;52.43
25947;BME280;13745;51.470;9.894;2023-07-09T11:28:03;99658.03;;;34.09;51.90
25947;BME280;13745;51.470;9.894;2023-07-09T11:30:50;99657.22;;;34.17;51.07
25947;BME280;13745;51.470;9.894;2023-07-09T11:33:47;99657.91;;;34.19;50.48
25947;BME280;13745;51.470;9.894;2023-07-09T11:36:34;99655.06;;;34.20;49.94
25947;BME280;13745;51.470;9.894;2023-07-09T11:39:21;99651.53;;;34.20;50.39
25947;BME280;13745;51.470;9.894;2023-07-09T11:45:06;99646.47;;;34.25;49.72
25947;BME280;13745;51.470;9.894;2023-07-09T11:47:57;99650.19;;;34.32;50.59
25947;BME280;13745;51.470;9.894;2023-07-09T11:50:50;99643.81;;;34.41;50.11
25947;BME280;13745;51.470;9.894;2023-07-09T11:53:41;99652.25;;;34.46;49.82
25947;BME280;13745;51.470;9.894;2023-07-09T11:56:28;99654.78;;;34.48;50.14
25947;BME280;13745;51.470;9.894;2023-07-09T11:59:13;99648.06;;;34.52;49.25
25947;BME280;13745;51.470;9.894;2023-07-09T12:01:59;99649.03;;;34.59;49.44
25947;BME280;13745;51.470;9.894;2023-07-09T12:04:48;99643.34;;;34.62;48.98
25947;BME280;13745;51.470;9.894;2023-07-09T12:07:34;99647.88;;;34.61;48.32
25947;BME280;13745;51.470;9.894;2023-07-09T12:10:22;99643.84;;;34.57;48.27
25947;BME280;13745;51.470;9.894;2023-07-09T12:13:09;99640.66;;;34.62;48.90
25947;BME280;13745;51.470;9.894;2023-07-09T12:15:55;99643.84;;;34.66;48.93
25947;BME280;13745;51.470;9.894;2023-07-09T12:18:42;99628.38;;;34.68;49.23
25947;BME280;13745;51.470;9.894;2023-07-09T12:21:38;99626.50;;;34.68;50.29
25947;BME280;13745;51.470;9.894;2023-07-09T12:24:25;99625.31;;;34.79;50.72
25947;BME280;13745;51.470;9.894;2023-07-09T12:27:19;99615.03;;;34.82;50.83
25947;BME280;13745;51.470;9.894;2023-07-09T12:30:11;99622.44;;;34.88;51.17
25947;BME280;13745;51.470;9.894;2023-07-09T12:32:56;99613.69;;;34.95;50.32
25947;BME280;13745;51.470;9.894;2023-07-09T12:35:43;99616.69;;;35.00;49.88
25947;BME280;13745;51.470;9.894;2023-07-09T12:38:30;99608.94;;;35.05;49.10
25947;BME280;13745;51.470;9.894;2023-07-09T12:41:22;99608.59;;;35.08;49.19
25947;BME280;13745;51.470;9.894;2023-07-09T12:44:15;99609.94;;;35.12;49.43
25947;BME280;13745;51.470;9.894;2023-07-09T12:47:01;99606.06;;;35.14;48.96
25947;BME280;13745;51.470;9.894;2023-07-09T12:49:46;99607.75;;;35.15;49.49
25947;BME280;13745;51.470;9.894;2023-07-09T12:52:45;99602.03;;;35.18;49.20
25947;BME280;13745;51.470;9.894;2023-07-09T12:55:38;99597.09;;;35.22;49.14
25947;BME280;13745;51.470;9.894;2023-07-09T12:58:25;99586.97;;;35.24;48.46
25947;BME280;13745;51.470;9.894;2023-07-09T13:01:15;99581.94;;;35.21;48.74
25947;BME280;13745;51.470;9.894;2023-07-09T13:04:01;99579.25;;;35.21;49.11
25947;BME280;13745;51.470;9.894;2023-07-09T13:06:46;99569.47;;;35.20;48.92
25947;BME280;13745;51.470;9.894;2023-07-09T13:09:33;99572.53;;;35.17;49.55
25947;BME280;13745;51.470;9.894;2023-07-09T13:12:20;99564.97;;;35.12;49.55
25947;BME280;13745;51.470;9.894;2023-07-09T13:15:06;99569.16;;;35.15;49.50
25947;BME280;13745;51.470;9.894;2023-07-09T13:17:57;99551.97;;;35.16;49.88
25947;BME280;13745;51.470;9.894;2023-07-09T13:20:45;99553.81;;;35.15;50.16
25947;BME280;13745;51.470;9.894;2023-07-09T13:23:32;99554.00;;;35.14;50.76
25947;BME280;13745;51.470;9.894;2023-07-09T13:26:18;99555.19;;;35.11;50.24
25947;BME280;13745;51.470;9.894;2023-07-09T13:29:12;99555.69;;;35.07;50.32
25947;BME280;13745;51.470;9.894;2023-07-09T13:31:57;99554.88;;;35.06;50.24
25947;BME280;13745;51.470;9.894;2023-07-09T13:34:44;99536.81;;;35.07;50.18
25947;BME280;13745;51.470;9.894;2023-07-09T13:37:29;99542.59;;;35.04;48.46
25947;BME280;13745;51.470;9.894;2023-07-09T13:40:15;99538.06;;;34.96;48.32
25947;BME280;13745;51.470;9.894;2023-07-09T13:43:01;99541.78;;;34.95;48.52
25947;BME280;13745;51.470;9.894;2023-07-09T13:45:47;99534.34;;;34.89;48.53
25947;BME280;13745;51.470;9.894;2023-07-09T13:48:34;99533.66;;;34.87;49.15
25947;BME280;13745;51.470;9.894;2023-07-09T13:51:21;99531.16;;;34.85;50.27
25947;BME280;13745;51.470;9.894;2023-07-09T13:54:14;99522.91;;;34.87;50.94
25947;BME280;13745;51.470;9.894;2023-07-09T13:56:59;99517.31;;;34.88;50.96
25947;BME280;13745;51.470;9.894;2023-07-09T13:59:46;99517.31;;;34.88;49.86
25947;BME280;13745;51.470;9.894;2023-07-09T14:02:31;99519.03;;;34.89;49.56
25947;BME280;13745;51.470;9.894;2023-07-09T14:05:17;99522.38;;;34.91;49.16
25947;BME280;13745;51.470;9.894;2023-07-09T14:08:02;99524.56;;;34.88;48.23
25947;BME280;13745;51.470;9.894;2023-07-09T14:10:48;99527.44;;;34.86;47.70
25947;BME280;13745;51.470;9.894;2023-07-09T14:13:34;99529.31;;;34.86;47.19
25947;BME280;13745;51.470;9.894;2023-07-09T14:16:20;99521.03;;;34.87;47.58
25947;BME280;13745;51.470;9.894;2023-07-09T14:19:09;99525.25;;;34.82;48.00
25947;BME280;13745;51.470;9.894;2023-07-09T14:21:57;99522.56;;;34.82;47.65
25947;BME280;13745;51.470;9.894;2023-07-09T14:24:42;99528.31;;;34.79;46.81
25947;BME280;13745;51.470;9.894;2023-07-09T14:27:27;99518.88;;;34.75;46.55
25947;BME280;13745;51.470;9.894;2023-07-09T14:30:15;99509.09;;;34.74;46.64
25947;BME280;13745;51.470;9.894;2023-07-09T14:33:02;99507.25;;;34.74;47.13
25947;BME280;13745;51.470;9.894;2023-07-09T14:35:49;99496.84;;;34.71;47.69
25947;BME280;13745;51.470;9.894;2023-07-09T14:38:34;99502.72;;;34.67;47.90
25947;BME280;13745;51.470;9.894;2023-07-09T14:41:21;99499.19;;;34.66;48.65
25947;BME280;13745;51.470;9.894;2023-07-09T14:44:18;99494.66;;;34.58;50.12
25947;BME280;13745;51.470;9.894;2023-07-09T14:47:18;99491.84;;;34.52;50.50
25947;BME280;13745;51.470;9.894;2023-07-09T14:50:07;99486.78;;;34.49;50.65